createdAt,value
2018-12-30T00:00:28.510Z,102016.50
2018-12-30T00:05:33.885Z,102016.94
2018-12-30T00:10:39.322Z,102016.50
2018-12-30T00:15:44.676Z,102022.33
2018-12-30T00:20:49.979Z,102012.58
2018-12-30T00:25:55.609Z,102016.53
2018-12-30T00:31:00.894Z,102016.09
2018-12-30T00:36:06.439Z,102006.32
2018-12-30T00:41:11.867Z,102005.45
2018-12-30T00:46:17.198Z,102008.11
2018-12-30T00:51:22.556Z,102010.32
2018-12-30T00:56:28.002Z,102002.72
2018-12-30T01:01:33.484Z,102008.09
2018-12-30T01:06:38.886Z,102013.47
2018-12-30T01:11:44.305Z,102002.34
2018-12-30T01:16:49.471Z,102004.12
2018-12-30T01:21:54.918Z,102009.42
2018-12-30T01:27:00.207Z,102013.86
2018-12-30T01:32:05.532Z,102027.19
2018-12-30T01:37:10.753Z,102016.91
2018-12-30T01:42:16.124Z,102021.78
2018-12-30T01:47:21.433Z,102019.54
2018-12-30T01:52:26.755Z,102016.78
2018-12-30T01:57:32.059Z,102018.97
2018-12-30T02:02:37.404Z,102021.21
2018-12-30T02:07:42.674Z,102026.64
2018-12-30T02:12:48.098Z,102033.23
2018-12-30T02:17:53.448Z,102032.38
2018-12-30T02:22:58.794Z,102030.61
2018-12-30T02:33:15.388Z,102027.51
2018-12-30T02:38:20.686Z,102031.95
2018-12-30T02:43:26.211Z,102030.61
2018-12-30T02:48:31.539Z,102017.26
2018-12-30T02:58:45.579Z,102017.73
2018-12-30T03:03:51.879Z,101997.75
2018-12-30T03:08:58.535Z,101999.05
2018-12-30T03:14:03.886Z,102009.37
2018-12-30T03:19:09.670Z,102011.53
2018-12-30T03:24:14.998Z,102009.37
2018-12-30T03:29:20.454Z,102019.14
2018-12-30T03:40:03.918Z,102031.16
2018-12-30T03:45:09.233Z,102016.06
2018-12-30T03:50:14.643Z,102016.91
2018-12-30T03:55:20.178Z,102012.00
2018-12-30T04:05:33.330Z,102009.80
2018-12-30T04:10:38.541Z,101997.32
2018-12-30T04:15:43.966Z,101987.03
2018-12-30T04:20:49.280Z,101981.20
2018-12-30T04:25:54.540Z,101979.88
2018-12-30T04:30:59.815Z,101987.83
2018-12-30T04:36:05.091Z,101985.11
2018-12-30T04:41:10.340Z,101986.49
2018-12-30T04:46:15.753Z,101990.98
2018-12-30T04:51:21.042Z,101980.30
2018-12-30T04:56:26.344Z,101979.97
2018-12-30T05:01:31.574Z,101986.72
2018-12-30T05:06:36.827Z,101988.02
2018-12-30T05:11:42.262Z,101991.89
2018-12-30T05:16:47.619Z,101979.70
2018-12-30T05:21:52.890Z,101976.48
2018-12-30T05:26:58.230Z,101980.39
2018-12-30T05:32:03.469Z,101988.57
2018-12-30T05:37:08.822Z,101995.17
2018-12-30T05:42:14.122Z,101983.93
2018-12-30T05:47:19.494Z,101987.00
2018-12-30T05:52:24.870Z,101982.03
2018-12-30T05:57:30.145Z,101984.00
2018-12-30T06:02:35.389Z,101977.44
2018-12-30T06:07:40.659Z,101982.78
2018-12-30T06:12:45.914Z,101976.52
2018-12-30T06:17:51.391Z,101970.28
2018-12-30T06:22:56.741Z,101966.69
2018-12-30T06:28:02.099Z,101974.71
2018-12-30T06:33:07.434Z,101969.94
2018-12-30T06:38:12.758Z,101976.95
2018-12-30T06:43:18.210Z,101975.22
2018-12-30T06:48:24.091Z,101986.01
2018-12-30T06:53:29.375Z,101986.93
2018-12-30T06:58:34.609Z,101987.88
2018-12-30T07:03:39.834Z,101981.16
2018-12-30T07:08:45.108Z,101998.56
2018-12-30T07:13:50.370Z,101991.89
2018-12-30T07:18:55.734Z,102001.70
2018-12-30T07:24:01.126Z,102007.52
2018-12-30T07:29:06.564Z,102018.24
2018-12-30T07:34:11.919Z,102021.34
2018-12-30T07:39:17.229Z,102029.78
2018-12-30T07:44:22.590Z,102031.04
2018-12-30T07:49:27.945Z,102024.84
2018-12-30T07:54:33.263Z,102034.62
2018-12-30T07:59:38.655Z,102039.52
2018-12-30T08:04:44.194Z,102052.36
2018-12-30T08:09:49.774Z,102050.55
2018-12-30T08:14:55.259Z,102039.91
2018-12-30T08:20:01.915Z,102047.50
2018-12-30T08:25:08.799Z,102063.16
2018-12-30T08:30:14.168Z,102063.16
2018-12-30T08:35:19.780Z,102060.92
2018-12-30T08:40:25.279Z,102074.20
2018-12-30T08:45:30.820Z,102081.27
2018-12-30T08:50:36.350Z,102087.09
2018-12-30T08:55:41.789Z,102087.52
2018-12-30T09:00:47.305Z,102092.43
2018-12-30T09:05:52.857Z,102078.17
2018-12-30T09:10:58.346Z,102074.59
2018-12-30T09:16:03.845Z,102086.18
2018-12-30T09:21:09.336Z,102078.17
2018-12-30T09:31:55.280Z,102090.19
2018-12-30T09:42:40.358Z,102093.72
2018-12-30T09:47:45.871Z,102099.92
2018-12-30T09:52:51.375Z,102095.92
2018-12-30T09:57:57.147Z,102088.33
2018-12-30T10:03:02.616Z,102098.11
2018-12-30T10:08:08.114Z,102101.30
2018-12-30T10:13:13.800Z,102104.02
2018-12-30T10:18:19.515Z,102110.69
2018-12-30T10:23:25.065Z,102114.23
2018-12-30T10:28:30.473Z,102117.25
2018-12-30T10:33:35.898Z,102117.25
2018-12-30T10:38:44.076Z,102116.82
2018-12-30T10:43:49.520Z,102113.23
2018-12-30T10:48:55.073Z,102119.53
2018-12-30T10:59:38.679Z,102116.94
2018-12-30T11:04:44.206Z,102108.05
2018-12-30T11:09:49.667Z,102104.45
2018-12-30T11:14:55.146Z,102107.08
2018-12-30T11:20:00.839Z,102110.61
2018-12-30T11:25:07.455Z,102114.58
2018-12-30T11:30:13.057Z,102114.09
2018-12-30T11:36:49.958Z,102111.43
2018-12-30T11:40:26.727Z,102109.66
2018-12-30T11:45:32.474Z,102107.41
2018-12-30T11:50:38.137Z,102114.14
2018-12-30T11:55:43.656Z,102105.64
2018-12-30T12:00:49.284Z,102113.20
2018-12-30T12:05:54.798Z,102106.98
2018-12-30T12:11:02.337Z,102104.70
2018-12-30T12:21:17.785Z,102079.84
2018-12-30T12:26:23.423Z,102080.27
2018-12-30T12:31:29.026Z,102074.50
2018-12-30T12:36:34.544Z,102072.30
2018-12-30T12:41:40.404Z,102058.41
2018-12-30T12:46:46.025Z,102047.77
2018-12-30T12:51:51.602Z,102037.98
2018-12-30T12:56:57.213Z,102034.89
2018-12-30T13:02:02.801Z,102034.94
2018-12-30T13:07:08.562Z,102031.75
2018-12-30T13:12:14.342Z,102028.70
2018-12-30T13:17:20.022Z,102032.28
2018-12-30T13:22:25.902Z,102027.89
2018-12-30T13:27:31.402Z,102028.27
2018-12-30T13:32:37.113Z,102014.38
2018-12-30T13:37:42.822Z,102014.31
2018-12-30T13:42:48.462Z,102013.83
2018-12-30T13:47:54.167Z,102020.98
2018-12-30T13:52:59.844Z,102023.31
2018-12-30T13:58:05.542Z,102025.59
2018-12-30T14:03:11.124Z,102022.55
2018-12-30T14:08:17.002Z,102017.64
2018-12-30T14:13:22.682Z,102018.06
2018-12-30T14:18:28.303Z,102016.20
2018-12-30T14:23:34.104Z,102012.55
2018-12-30T14:28:39.541Z,102014.73
2018-12-30T14:33:45.181Z,102014.23
2018-12-30T14:38:50.901Z,102013.81
2018-12-30T14:43:56.645Z,102015.16
2018-12-30T14:49:02.141Z,102015.64
2018-12-30T14:54:08.513Z,102012.91
2018-12-30T14:59:14.042Z,102017.77
2018-12-30T15:04:19.746Z,102016.97
2018-12-30T15:09:25.466Z,102017.83
2018-12-30T15:14:31.314Z,102019.28
2018-12-30T15:19:36.894Z,102026.45
2018-12-30T15:24:42.573Z,102029.42
2018-12-30T15:29:48.122Z,102037.31
2018-12-30T15:34:53.794Z,102035.19
2018-12-30T15:45:36.447Z,102039.77
2018-12-30T15:56:03.547Z,102041.52
2018-12-30T16:01:08.978Z,102037.98
2018-12-30T16:06:14.808Z,102048.31
2018-12-30T16:11:20.397Z,102048.30
2018-12-30T16:16:26.117Z,102057.06
2018-12-30T16:21:31.988Z,102054.98
2018-12-30T16:26:37.394Z,102056.80
2018-12-30T16:37:00.845Z,102060.92
2018-12-30T16:42:06.558Z,102058.72
2018-12-30T16:52:29.695Z,102060.89
2018-12-30T17:03:06.855Z,102063.56
2018-12-30T17:08:12.300Z,102058.18
2018-12-30T17:13:17.839Z,102063.91
2018-12-30T17:18:23.406Z,102066.52
2018-12-30T17:28:46.304Z,102073.40
2018-12-30T17:39:23.746Z,102061.36
2018-12-30T17:44:29.255Z,102068.03
2018-12-30T17:55:12.355Z,102072.73
2018-12-30T18:05:57.423Z,102078.17
2018-12-30T18:11:03.161Z,102080.80
2018-12-30T18:16:08.743Z,102086.52
2018-12-30T18:21:14.199Z,102083.42
2018-12-30T18:26:20.387Z,102089.72
2018-12-30T18:31:26.912Z,102098.23
2018-12-30T18:36:33.466Z,102097.80
2018-12-30T18:41:39.093Z,102102.67
2018-12-30T18:46:44.833Z,102100.78
2018-12-30T18:51:50.197Z,102108.02
2018-12-30T18:56:56.122Z,102111.59
2018-12-30T19:02:02.308Z,102113.33
2018-12-30T19:07:08.105Z,102112.81
2018-12-30T19:12:13.623Z,102106.98
2018-12-30T19:17:19.514Z,102109.61
2018-12-30T19:27:32.433Z,102105.45
2018-12-30T19:32:37.889Z,102106.30
2018-12-30T19:37:43.650Z,102102.66
2018-12-30T19:42:49.109Z,102105.86
2018-12-30T19:53:12.459Z,102108.27
2018-12-30T19:58:17.928Z,102112.76
2018-12-30T20:03:23.429Z,102118.00
2018-12-30T20:08:29.049Z,102120.25
2018-12-30T20:19:11.932Z,102120.19
2018-12-30T20:29:48.945Z,102120.59
2018-12-30T20:34:54.689Z,102127.27
2018-12-30T20:40:00.285Z,102122.84
2018-12-30T20:45:06.307Z,102122.59
2018-12-30T20:50:11.985Z,102121.69
2018-12-30T20:55:17.749Z,102116.77
2018-12-30T21:00:23.893Z,102119.92
2018-12-30T21:10:55.210Z,102113.24
2018-12-30T21:16:00.746Z,102104.33
2018-12-30T21:21:06.411Z,102110.09
2018-12-30T21:26:11.895Z,102109.31
2018-12-30T21:36:35.210Z,102102.08
2018-12-30T21:41:40.758Z,102105.53
2018-12-30T21:46:46.478Z,102097.53
2018-12-30T21:51:52.099Z,102101.22
2018-12-30T21:56:57.669Z,102103.02
2018-12-30T22:02:03.578Z,102102.20
2018-12-30T22:07:09.178Z,102087.04
2018-12-30T22:12:14.899Z,102097.69
2018-12-30T22:17:20.619Z,102098.06
2018-12-30T22:22:26.158Z,102106.22
2018-12-30T22:27:31.878Z,102100.00
2018-12-30T22:32:37.418Z,102102.25
2018-12-30T22:37:44.498Z,102102.74
2018-12-30T22:42:49.908Z,102098.77
2018-12-30T22:47:56.175Z,102104.52
2018-12-30T22:53:01.680Z,102107.63
2018-12-30T22:58:07.318Z,102103.14
2018-12-30T23:03:12.999Z,102110.72
2018-12-30T23:08:18.758Z,102111.16
2018-12-30T23:13:24.590Z,102108.55
2018-12-30T23:18:30.458Z,102116.55
2018-12-30T23:23:35.937Z,102113.89
2018-12-30T23:28:41.478Z,102122.80
2018-12-30T23:33:47.101Z,102124.08
2018-12-30T23:38:52.741Z,102123.64
2018-12-30T23:43:58.222Z,102129.02
2018-12-30T23:49:03.979Z,102125.92
2018-12-30T23:54:09.498Z,102126.38
2018-12-30T23:59:15.159Z,102129.95
